LFBC 201000Z AUTO 19003KT CAVOK 18/17 Q1017 NOSIG
LFBD 201000Z AUTO 19005KT CAVOK 18/16 Q1017 NOSIG